Time;durP1;ratioP1;P1;durP2;ratioP2;P2;SDS_P1;SDS_P2;PMS_P1;PMS_P2;Temp;Humidity;BMP_temperature;BMP_pressure;BME280_temperature;BME280_humidity;BME280_pressure;Samples;Min_cycle;Max_cycle;Signal;HPM_P1;HPM_P2
2022/04/15 00:01:49;;;;;;;5.03;2.10;;;;;;;9.30;100.00;102519.38;5002446;28;20185;-71
2022/04/15 00:04:15;;;;;;;4.67;1.80;;;;;;;9.46;100.00;102568.63;4997146;28;20275;-72
2022/04/15 00:06:40;;;;;;;2.20;1.80;;;;;;;9.26;100.00;102550.97;4998719;28;20925;-72
2022/04/15 00:09:06;;;;;;;3.73;2.00;;;;;;;9.46;100.00;102568.63;5002219;28;20193;-72
2022/04/15 00:11:32;;;;;;;4.40;1.90;;;;;;;9.42;100.00;102561.88;4999908;28;20185;-72
2022/04/15 00:13:58;;;;;;;4.60;2.00;;;;;;;9.27;100.00;102544.63;5003515;28;20702;-73
2022/04/15 00:16:24;;;;;;;8.50;2.20;;;;;;;8.99;100.00;102499.09;5003891;28;20456;-71
2022/04/15 00:18:49;;;;;;;3.63;2.07;;;;;;;9.45;100.00;102560.75;5004304;28;20454;-71
2022/04/15 00:21:14;;;;;;;5.00;1.97;;;;;;;8.88;100.00;102472.53;5006699;28;20271;-72
2022/04/15 00:23:40;;;;;;;4.90;2.10;;;;;;;9.11;100.00;102506.94;5001600;28;20254;-73
2022/04/15 00:26:06;;;;;;;4.27;2.20;;;;;;;9.53;100.00;102565.34;4999982;28;20189;-72
2022/04/15 00:28:31;;;;;;;5.63;2.03;;;;;;;9.62;100.00;102557.25;5001510;28;20188;-72
2022/04/15 00:30:57;;;;;;;7.03;2.00;;;;;;;8.74;100.00;102462.31;5000963;28;20263;-72
2022/04/15 00:33:22;;;;;;;3.87;2.07;;;;;;;9.56;100.00;102554.34;5002336;28;20542;-74
2022/04/15 00:35:48;;;;;;;3.20;1.90;;;;;;;9.56;100.00;102559.69;5000336;28;20256;-72
2022/04/15 00:38:13;;;;;;;4.73;2.23;;;;;;;9.49;100.00;102560.31;5000803;28;20214;-73
2022/04/15 00:40:39;;;;;;;3.17;1.83;;;;;;;9.44;100.00;102532.28;5002978;28;20201;-72
2022/04/15 00:43:04;;;;;;;5.53;2.10;;;;;;;9.23;100.00;102524.50;5001533;28;20335;-72
2022/04/15 00:45:30;;;;;;;4.07;2.13;;;;;;;9.13;100.00;102515.66;5001677;28;20229;-72
2022/04/15 00:47:57;;;;;;;4.07;1.93;;;;;;;9.44;100.00;102559.91;5001112;28;20185;-72
2022/04/15 00:50:28;;;;;;;5.03;2.30;;;;;;;9.44;100.00;102554.53;4987645;28;20216;-71
2022/04/15 00:52:55;;;;;;;5.27;2.50;;;;;;;9.28;100.00;102538.28;5002931;28;20470;-72
2022/04/15 00:55:22;;;;;;;4.10;1.93;;;;;;;9.34;100.00;102574.31;5004996;28;20456;-73
2022/04/15 00:57:59;;;;;;;4.20;2.60;;;;;;;9.31;100.00;102571.94;5003396;28;20497;-73
2022/04/15 01:00:26;;;;;;;6.20;2.60;;;;;;;9.39;100.00;102569.38;4999757;28;20451;-72
2022/04/15 01:02:51;;;;;;;5.30;2.70;;;;;;;9.04;100.00;102528.94;5003775;28;20447;-72
2022/04/15 01:05:17;;;;;;;4.77;2.50;;;;;;;8.96;100.00;102528.00;5000510;28;20453;-72
2022/04/15 01:07:48;;;;;;;5.77;3.13;;;;;;;9.14;100.00;102557.50;5001247;28;20185;-72
2022/04/15 01:10:14;;;;;;;8.57;2.87;;;;;;;9.24;100.00;102587.75;5000749;28;20312;-72
2022/04/15 01:12:44;;;;;;;5.63;3.93;;;;;;;9.00;100.00;102575.75;5000485;28;20462;-72
2022/04/15 01:15:15;;;;;;;6.07;3.67;;;;;;;8.60;100.00;102535.84;4981438;28;20456;-73
2022/04/15 01:17:41;;;;;;;6.70;4.00;;;;;;;8.89;100.00;102594.66;5003224;28;20436;-72
2022/04/15 01:20:09;;;;;;;4.33;3.70;;;;;;;8.88;100.00;102589.41;4987617;28;20467;-71
2022/04/15 01:22:45;;;;;;;4.33;3.40;;;;;;;8.86;100.00;102591.41;4999756;28;21134;-72
2022/04/15 01:25:16;;;;;;;4.30;3.80;;;;;;;8.77;100.00;102585.09;5004016;28;20442;-72
2022/04/15 01:27:47;;;;;;;5.20;3.90;;;;;;;8.81;100.00;102592.69;5001316;28;20447;-74
2022/04/15 01:30:18;;;;;;;3.33;3.03;;;;;;;8.66;100.00;102596.81;5001573;28;20796;-72
2022/04/15 01:32:44;;;;;;;4.10;3.73;;;;;;;8.53;100.00;102606.94;4995438;28;20543;-72
2022/04/15 01:35:11;;;;;;;3.40;3.00;;;;;;;8.52;100.00;102591.88;5002543;28;20436;-72
2022/04/15 01:37:37;;;;;;;4.47;3.60;;;;;;;8.50;100.00;102601.88;4996651;28;20435;-71
2022/04/15 01:40:04;;;;;;;2.80;2.60;;;;;;;8.70;100.00;102603.53;5001341;28;20817;-71
2022/04/15 01:42:30;;;;;;;3.07;2.80;;;;;;;8.46;100.00;102579.94;5001162;28;20436;-72
2022/04/15 01:44:55;;;;;;;3.40;3.10;;;;;;;8.49;100.00;102609.06;5001497;28;21003;-71
2022/04/15 01:47:21;;;;;;;3.50;2.43;;;;;;;8.52;100.00;102597.25;5001194;28;20189;-72
2022/04/15 01:49:46;;;;;;;3.57;2.70;;;;;;;8.74;100.00;102604.13;5001072;28;20226;-71
2022/04/15 01:52:11;;;;;;;3.87;2.80;;;;;;;8.55;100.00;102599.63;5003504;28;20235;-71
2022/04/15 01:54:37;;;;;;;2.70;2.50;;;;;;;8.26;100.00;102581.72;4985239;28;20192;-72
2022/04/15 01:57:03;;;;;;;2.80;2.30;;;;;;;8.60;100.00;102616.09;4986741;28;20221;-73
2022/04/15 01:59:28;;;;;;;2.33;2.13;;;;;;;8.41;100.00;102570.66;5001098;28;20589;-72
2022/04/15 02:01:54;;;;;;;1.90;1.80;;;;;;;8.64;100.00;102625.50;5000383;28;20448;-71
2022/04/15 02:04:27;;;;;;;2.37;1.83;;;;;;;8.55;100.00;102621.03;4999281;28;20235;-71
2022/04/15 02:06:53;;;;;;;2.10;1.90;;;;;;;8.67;100.00;102616.38;4998343;28;20435;-73
2022/04/15 02:09:19;;;;;;;2.10;2.00;;;;;;;8.69;100.00;102622.44;4999340;28;20538;-72
2022/04/15 02:11:45;;;;;;;4.30;2.33;;;;;;;8.81;100.00;102610.56;4998757;28;20440;-72
2022/04/15 02:14:12;;;;;;;4.30;2.43;;;;;;;8.88;100.00;102614.38;4999060;28;20456;-72
2022/04/15 02:16:38;;;;;;;2.53;2.33;;;;;;;8.62;100.00;102583.84;5001333;28;20189;-73
2022/04/15 02:19:03;;;;;;;3.33;2.30;;;;;;;8.72;100.00;102624.81;5000889;28;20984;-73
2022/04/15 02:21:29;;;;;;;2.73;2.43;;;;;;;8.64;100.00;102613.97;5000710;28;20213;-73
2022/04/15 02:23:54;;;;;;;3.83;2.63;;;;;;;8.72;100.00;102622.97;4997339;28;20188;-71
2022/04/15 02:26:19;;;;;;;2.53;2.33;;;;;;;8.60;100.00;102611.59;5001361;28;20275;-73
2022/04/15 02:28:45;;;;;;;5.50;3.03;;;;;;;8.14;100.00;102566.81;5000958;28;20181;-73
2022/04/15 02:31:10;;;;;;;4.87;3.03;;;;;;;8.36;100.00;102621.81;4985221;28;20320;-72
2022/04/15 02:33:35;;;;;;;4.43;3.07;;;;;;;8.49;100.00;102638.47;5001320;28;20209;-71
2022/04/15 02:36:01;;;;;;;3.40;2.90;;;;;;;8.50;100.00;102625.94;5003915;28;20194;-72
2022/04/15 02:38:27;;;;;;;3.50;2.60;;;;;;;8.45;100.00;102639.75;5001560;28;20196;-72
2022/04/15 02:40:52;;;;;;;2.80;2.50;;;;;;;8.42;100.00;102618.66;5004506;28;20663;-71
2022/04/15 02:43:18;;;;;;;2.27;2.00;;;;;;;8.52;100.00;102650.72;5004294;28;20181;-72
2022/04/15 02:45:44;;;;;;;3.03;2.73;;;;;;;8.58;100.00;102642.97;5000187;28;20193;-72
2022/04/15 02:48:10;;;;;;;3.33;2.10;;;;;;;8.46;100.00;102644.09;5003270;28;21951;-71
2022/04/15 02:50:36;;;;;;;5.27;2.27;;;;;;;8.39;100.00;102648.34;5008347;23;20501;-72
2022/04/15 02:53:01;;;;;;;3.00;1.63;;;;;;;8.47;100.00;102643.13;4980987;28;20564;-70
2022/04/15 02:55:27;;;;;;;2.33;1.70;;;;;;;8.36;100.00;102640.53;4979415;28;20195;-70
2022/04/15 02:57:52;;;;;;;2.80;2.13;;;;;;;8.43;100.00;102660.44;4980817;28;20316;-70
2022/04/15 03:00:18;;;;;;;4.03;2.63;;;;;;;7.99;100.00;102613.66;4973675;28;20222;-70
2022/04/15 03:02:44;;;;;;;4.03;2.07;;;;;;;8.17;100.00;102636.03;4971077;28;20197;-70
2022/04/15 03:05:09;;;;;;;2.30;2.10;;;;;;;8.00;100.00;102621.53;4975111;28;20197;-70
2022/04/15 03:07:36;;;;;;;2.70;2.10;;;;;;;7.83;100.00;102625.72;4974416;28;20208;-70
2022/04/15 03:10:02;;;;;;;3.43;1.77;;;;;;;8.02;100.00;102651.63;4980264;28;20699;-70
2022/04/15 03:12:28;;;;;;;2.70;1.63;;;;;;;8.21;100.00;102658.81;4983001;28;20854;-70
2022/04/15 03:14:53;;;;;;;3.10;1.90;;;;;;;8.07;100.00;102660.09;4984180;28;20452;-70
2022/04/15 03:17:19;;;;;;;4.20;2.40;;;;;;;8.22;100.00;102659.69;4982322;28;20881;-70
2022/04/15 03:19:44;;;;;;;1.60;1.50;;;;;;;7.99;100.00;102624.34;4984448;28;20222;-70
2022/04/15 03:22:10;;;;;;;2.40;1.70;;;;;;;8.11;100.00;102621.41;4982959;28;20445;-70
2022/04/15 03:24:35;;;;;;;2.27;2.00;;;;;;;8.27;100.00;102652.09;4980860;28;20237;-70
2022/04/15 03:27:01;;;;;;;4.83;2.40;;;;;;;8.04;100.00;102628.31;4985309;28;20193;-71
2022/04/15 03:29:26;;;;;;;3.77;2.00;;;;;;;7.90;100.00;102623.34;4983246;28;20225;-70
2022/04/15 03:31:51;;;;;;;3.50;2.63;;;;;;;8.18;100.00;102669.78;4982180;28;20769;-70
2022/04/15 03:34:17;;;;;;;3.33;2.73;;;;;;;8.06;100.00;102642.34;4980723;28;20255;-70
2022/04/15 03:36:42;;;;;;;4.77;2.37;;;;;;;8.32;100.00;102658.69;4978878;28;20277;-70
2022/04/15 03:39:08;;;;;;;3.47;2.57;;;;;;;8.37;100.00;102682.34;4981813;28;20241;-70
2022/04/15 03:41:34;;;;;;;3.07;2.30;;;;;;;8.22;100.00;102673.91;4986374;28;20672;-70
2022/04/15 03:44:01;;;;;;;2.40;2.20;;;;;;;8.08;100.00;102683.16;4985669;28;20204;-70
2022/04/15 03:46:27;;;;;;;2.47;1.90;;;;;;;8.15;100.00;102681.59;4982996;28;20492;-70
2022/04/15 03:48:52;;;;;;;3.10;2.40;;;;;;;8.33;100.00;102684.47;4985350;28;21194;-70
2022/04/15 03:51:17;;;;;;;2.63;1.53;;;;;;;8.30;100.00;102682.09;4985368;28;20296;-70
2022/04/15 03:53:43;;;;;;;2.20;1.30;;;;;;;7.89;100.00;102625.16;4986557;28;20206;-70
2022/04/15 03:56:08;;;;;;;1.53;1.43;;;;;;;7.98;100.00;102649.38;4983099;28;20648;-70
2022/04/15 03:58:35;;;;;;;4.00;1.50;;;;;;;8.27;100.00;102692.19;4987376;28;20229;-70
2022/04/15 04:01:00;;;;;;;2.20;1.50;;;;;;;8.11;100.00;102677.53;4982960;28;20256;-70
2022/04/15 04:03:26;;;;;;;2.40;1.60;;;;;;;8.17;100.00;102677.97;4986735;28;20470;-70
2022/04/15 04:05:51;;;;;;;2.00;1.80;;;;;;;8.30;100.00;102690.09;4984638;28;20644;-70
2022/04/15 04:08:17;;;;;;;2.77;1.60;;;;;;;8.34;100.00;102694.19;4980674;28;20193;-70
2022/04/15 04:10:42;;;;;;;3.87;2.07;;;;;;;8.47;100.00;102685.91;4985486;28;20210;-70
2022/04/15 04:13:08;;;;;;;1.70;1.60;;;;;;;8.50;100.00;102690.13;4985504;28;20706;-70
2022/04/15 04:15:35;;;;;;;3.13;2.10;;;;;;;8.45;100.00;102689.72;4983149;28;20384;-70
2022/04/15 04:18:00;;;;;;;1.83;1.50;;;;;;;8.30;100.00;102687.44;4983088;28;20190;-71
2022/04/15 04:20:26;;;;;;;3.17;2.20;;;;;;;8.11;100.00;102663.31;4986458;28;20522;-71
2022/04/15 04:22:52;;;;;;;1.93;1.73;;;;;;;7.92;100.00;102621.38;4984279;28;20268;-71
2022/04/15 04:25:17;;;;;;;3.63;1.70;;;;;;;8.03;100.00;102650.66;4981368;28;20469;-70
2022/04/15 04:27:43;;;;;;;2.63;2.00;;;;;;;8.25;100.00;102687.00;4978162;28;20189;-70
2022/04/15 04:30:12;;;;;;;3.43;2.00;;;;;;;8.46;100.00;102697.59;4980793;28;20292;-70
2022/04/15 04:32:38;;;;;;;6.30;2.30;;;;;;;8.22;100.00;102708.66;4979485;28;20479;-70
2022/04/15 04:35:05;;;;;;;4.33;2.70;;;;;;;8.33;100.00;102708.53;4983038;28;20437;-70
2022/04/15 04:37:30;;;;;;;2.60;2.30;;;;;;;8.34;100.00;102686.16;4975668;28;20573;-70
2022/04/15 04:39:56;;;;;;;3.67;2.90;;;;;;;8.34;100.00;102707.53;4975362;28;20469;-70
2022/04/15 04:42:22;;;;;;;3.63;2.60;;;;;;;8.56;100.00;102724.34;4978558;28;20197;-69
2022/04/15 04:44:48;;;;;;;3.50;3.20;;;;;;;8.37;100.00;102725.97;4980580;28;20186;-71
2022/04/15 04:47:14;;;;;;;3.13;2.60;;;;;;;8.30;100.00;102727.53;4980570;28;20533;-71
2022/04/15 04:49:39;;;;;;;5.83;4.33;;;;;;;8.33;100.00;102681.81;4981860;28;20186;-69
2022/04/15 04:52:05;;;;;;;5.17;4.27;;;;;;;8.63;100.00;102735.34;4983191;28;20469;-68
2022/04/15 04:54:31;;;;;;;4.80;4.30;;;;;;;8.54;100.00;102739.69;4987260;28;20268;-69
2022/04/15 04:56:57;;;;;;;6.40;5.43;;;;;;;8.56;100.00;102737.72;4985883;28;20944;-69
2022/04/15 04:59:25;;;;;;;8.90;5.90;;;;;;;8.33;100.00;102713.88;4982207;28;20440;-69
2022/04/15 05:01:53;;;;;;;9.63;6.50;;;;;;;8.36;100.00;102758.19;4982130;28;20281;-69
2022/04/15 05:04:18;;;;;;;9.57;6.83;;;;;;;8.24;100.00;102727.22;4984150;28;20580;-69
2022/04/15 05:06:43;;;;;;;9.23;6.43;;;;;;;8.33;100.00;102758.47;4984008;28;20474;-69
2022/04/15 05:09:09;;;;;;;10.17;6.77;;;;;;;8.15;100.00;102747.59;4973105;28;20346;-71
2022/04/15 05:11:34;;;;;;;9.20;6.30;;;;;;;7.81;100.00;102672.25;4972107;28;20222;-71
2022/04/15 05:13:59;;;;;;;10.17;7.30;;;;;;;8.23;100.00;102763.81;4979699;28;20213;-70
2022/04/15 05:16:25;;;;;;;8.67;7.10;;;;;;;8.06;100.00;102737.72;4980855;28;20628;-71
2022/04/15 05:18:50;;;;;;;11.20;7.33;;;;;;;8.17;100.00;102753.66;4977683;28;20190;-70
2022/04/15 05:21:16;;;;;;;12.03;7.20;;;;;;;7.90;100.00;102717.72;4980071;28;20703;-71
2022/04/15 05:23:41;;;;;;;11.03;7.50;;;;;;;7.87;100.00;102691.25;4980367;28;20182;-70
2022/04/15 05:26:07;;;;;;;15.23;7.63;;;;;;;8.28;100.00;102776.78;4981644;28;20206;-71
2022/04/15 05:28:35;;;;;;;6.90;5.97;;;;;;;8.41;100.00;102774.72;4979099;28;20255;-71
2022/04/15 05:31:02;;;;;;;8.23;7.23;;;;;;;8.20;100.00;102761.41;4974181;28;20284;-70
2022/04/15 05:33:28;;;;;;;9.67;7.10;;;;;;;8.38;100.00;102791.88;4974473;28;20480;-71
2022/04/15 05:35:53;;;;;;;12.87;6.80;;;;;;;7.82;100.00;102716.69;4978059;28;20450;-71
2022/04/15 05:38:18;;;;;;;8.53;6.60;;;;;;;8.37;100.00;102775.94;4979402;28;20649;-71
2022/04/15 05:40:44;;;;;;;7.90;6.37;;;;;;;8.41;100.00;102796.09;4974256;28;20213;-70
2022/04/15 05:43:09;;;;;;;8.60;6.00;;;;;;;8.28;100.00;102800.84;4977235;28;20188;-70
2022/04/15 05:45:34;;;;;;;12.17;5.70;;;;;;;8.04;100.00;102790.47;4978193;28;20247;-70
2022/04/15 05:48:00;;;;;;;8.53;5.37;;;;;;;8.37;100.00;102802.69;4977427;28;20789;-71
2022/04/15 05:50:25;;;;;;;8.17;5.90;;;;;;;8.59;100.00;102804.31;4981317;28;20600;-70
2022/04/15 05:52:51;;;;;;;8.30;6.97;;;;;;;8.03;100.00;102733.50;4983319;28;20622;-70
2022/04/15 05:55:16;;;;;;;12.07;5.60;;;;;;;8.22;100.00;102807.56;4984225;28;20196;-70
2022/04/15 05:57:41;;;;;;;7.10;5.20;;;;;;;8.31;100.00;102805.91;4978524;28;20201;-70
2022/04/15 06:00:08;;;;;;;8.57;5.10;;;;;;;8.44;100.00;102816.38;4980588;28;20268;-68
2022/04/15 06:02:34;;;;;;;16.00;4.80;;;;;;;8.56;100.00;102828.66;4976331;28;20272;-72
2022/04/15 06:04:59;;;;;;;5.30;3.60;;;;;;;7.97;100.00;102766.09;4972187;28;20829;-69
2022/04/15 06:07:25;;;;;;;7.07;5.00;;;;;;;8.22;100.00;102807.56;4972268;28;20224;-70
2022/04/15 06:09:50;;;;;;;6.33;4.93;;;;;;;8.14;100.00;102804.72;4979740;28;20210;-67
2022/04/15 06:12:15;;;;;;;8.40;4.00;;;;;;;8.28;100.00;102841.78;4978336;28;20671;-68
2022/04/15 06:14:41;;;;;;;7.83;4.63;;;;;;;7.95;100.00;102791.25;4980139;28;20193;-69
2022/04/15 06:17:07;;;;;;;9.20;4.50;;;;;;;7.86;100.00;102795.59;4977227;28;20269;-69
2022/04/15 06:19:32;;;;;;;6.67;4.20;;;;;;;8.21;100.00;102843.28;4978535;28;20197;-69
2022/04/15 06:21:58;;;;;;;9.33;5.57;;;;;;;8.25;100.00;102849.22;4977002;28;20193;-69
2022/04/15 06:24:23;;;;;;;8.70;3.50;;;;;;;8.26;100.00;102842.91;4976188;28;20194;-69
2022/04/15 06:26:50;;;;;;;6.63;3.77;;;;;;;8.44;100.00;102853.81;4974443;28;20216;-70
2022/04/15 06:29:16;;;;;;;7.77;4.30;;;;;;;8.37;100.00;102857.00;4977194;28;20675;-70
2022/04/15 06:31:41;;;;;;;8.77;3.97;;;;;;;8.56;100.00;102863.44;4978424;28;20465;-68
2022/04/15 06:34:06;;;;;;;6.07;3.97;;;;;;;8.45;100.00;102852.88;4978190;28;20205;-68
2022/04/15 06:36:32;;;;;;;10.37;4.17;;;;;;;8.44;100.00;102859.16;4981135;28;20186;-68
2022/04/15 06:38:57;;;;;;;10.20;4.00;;;;;;;8.25;100.00;102844.72;4983097;28;20281;-70
2022/04/15 06:41:23;;;;;;;6.60;4.50;;;;;;;8.40;100.00;102852.41;4977172;28;20208;-71
2022/04/15 06:43:48;;;;;;;9.70;4.13;;;;;;;8.48;100.00;102853.44;4976863;28;20641;-70
2022/04/15 06:46:13;;;;;;;6.40;3.93;;;;;;;8.00;100.00;102784.53;4978033;28;20200;-71
2022/04/15 06:48:39;;;;;;;6.57;3.60;;;;;;;8.50;100.00;102861.31;4975819;28;20205;-71
2022/04/15 06:51:04;;;;;;;6.07;4.17;;;;;;;8.44;100.00;102853.81;4973088;28;20304;-71
2022/04/15 06:53:30;;;;;;;5.60;4.10;;;;;;;8.45;100.00;102856.38;4978864;28;20213;-71
2022/04/15 06:55:55;;;;;;;6.63;3.60;;;;;;;8.23;100.00;102827.13;4972570;28;20200;-72
2022/04/15 06:58:21;;;;;;;7.60;3.73;;;;;;;8.40;100.00;102871.13;4975740;28;20189;-71
2022/04/15 07:00:46;;;;;;;6.23;3.23;;;;;;;8.56;100.00;102876.81;4976054;28;20670;-71
2022/04/15 07:03:12;;;;;;;5.27;3.60;;;;;;;8.55;100.00;102883.16;4974466;28;20194;-70
2022/04/15 07:05:42;;;;;;;4.10;3.27;;;;;;;8.56;100.00;102882.16;4975162;28;20453;-72
2022/04/15 07:08:09;;;;;;;5.70;3.43;;;;;;;8.51;100.00;102846.97;4972322;28;20645;-71
2022/04/15 07:10:36;;;;;;;5.13;3.13;;;;;;;8.59;100.00;102873.84;4974592;28;20493;-71
2022/04/15 07:13:01;;;;;;;5.67;3.80;;;;;;;8.65;100.00;102881.38;4981393;28;20473;-72
2022/04/15 07:15:27;;;;;;;5.20;3.40;;;;;;;8.83;100.00;102877.03;4980745;28;20448;-72
2022/04/15 07:17:52;;;;;;;5.47;3.67;;;;;;;8.58;100.00;102838.25;4978136;28;20186;-71
2022/04/15 07:20:18;;;;;;;10.00;4.00;;;;;;;8.77;100.00;102842.81;4981305;28;20213;-72
2022/04/15 07:22:43;;;;;;;5.83;3.73;;;;;;;8.79;100.00;102837.28;4981434;28;20193;-72
2022/04/15 07:25:09;;;;;;;6.47;4.30;;;;;;;8.68;100.00;102850.78;4979651;28;20206;-71
2022/04/15 07:27:34;;;;;;;6.50;3.57;;;;;;;8.99;100.00;102886.34;4980952;28;20224;-69
2022/04/15 07:30:00;;;;;;;4.80;3.53;;;;;;;8.82;100.00;102843.25;4982374;28;20216;-72
2022/04/15 07:32:27;;;;;;;6.20;3.93;;;;;;;8.93;100.00;102882.41;4983766;28;20209;-72
2022/04/15 07:34:53;;;;;;;5.83;3.60;;;;;;;8.98;100.00;102879.31;4983009;28;20273;-70
2022/04/15 07:37:18;;;;;;;6.87;4.00;;;;;;;8.87;100.00;102858.88;4983187;28;20568;-71
2022/04/15 07:39:44;;;;;;;5.10;3.60;;;;;;;9.24;100.00;102896.53;4980658;28;20197;-71
2022/04/15 07:42:12;;;;;;;6.53;3.93;;;;;;;9.33;100.00;102889.50;4976646;28;20209;-71
2022/04/15 07:44:38;;;;;;;4.77;4.00;;;;;;;9.39;100.00;102888.09;4980532;28;22574;-71
2022/04/15 07:47:04;;;;;;;4.90;3.87;;;;;;;9.21;100.00;102872.72;4982378;28;20571;-71
2022/04/15 07:49:29;;;;;;;5.63;4.40;;;;;;;9.17;100.00;102854.38;4974998;28;20457;-72
2022/04/15 07:51:55;;;;;;;6.77;4.67;;;;;;;9.31;100.00;102879.91;4980928;28;20202;-70
2022/04/15 07:54:20;;;;;;;4.87;4.23;;;;;;;9.35;100.00;102894.72;4982052;28;20223;-71
2022/04/15 07:56:45;;;;;;;5.47;4.00;;;;;;;9.60;100.00;102874.53;4984588;28;20190;-71
2022/04/15 07:59:11;;;;;;;6.83;4.20;;;;;;;9.80;100.00;102894.13;4982362;28;20201;-71
2022/04/15 08:01:38;;;;;;;5.73;3.60;;;;;;;9.21;100.00;102819.16;4983267;28;20254;-71
2022/04/15 08:04:05;;;;;;;7.80;4.57;;;;;;;9.58;100.00;102897.97;4979827;28;20213;-72
2022/04/15 08:06:31;;;;;;;5.97;3.97;;;;;;;9.68;100.00;102904.16;4980621;28;20448;-71
2022/04/15 08:08:58;;;;;;;6.10;3.87;;;;;;;9.79;100.00;102901.31;4982812;28;20538;-71
2022/04/15 08:11:25;;;;;;;5.70;4.07;;;;;;;10.01;100.00;102888.56;4985765;28;20510;-71
2022/04/15 08:13:51;;;;;;;5.20;4.10;;;;;;;9.94;100.00;102902.56;4978463;28;20571;-70
2022/04/15 08:16:16;;;;;;;5.67;3.97;;;;;;;9.66;100.00;102868.59;4979604;28;20544;-70
2022/04/15 08:18:42;;;;;;;5.73;4.50;;;;;;;9.93;100.00;102908.91;4980357;28;20453;-70
2022/04/15 08:21:07;;;;;;;4.50;3.43;;;;;;;10.07;100.00;102904.94;4972689;28;20280;-70
2022/04/15 08:23:33;;;;;;;6.60;4.33;;;;;;;9.66;100.00;102879.31;4980357;28;20202;-70
2022/04/15 08:25:58;;;;;;;6.30;4.37;;;;;;;9.82;100.00;102906.41;4979605;28;20280;-70
2022/04/15 08:28:23;;;;;;;6.97;4.77;;;;;;;9.55;100.00;102899.09;4979078;28;20629;-70
2022/04/15 08:30:49;;;;;;;6.03;4.70;;;;;;;9.71;100.00;102909.22;4985295;28;20263;-71
2022/04/15 08:33:15;;;;;;;5.87;4.63;;;;;;;9.53;100.00;102871.59;4984664;28;20232;-70
2022/04/15 08:35:41;;;;;;;5.70;4.43;;;;;;;9.72;100.00;102911.78;4984076;28;20445;-70
2022/04/15 08:38:07;;;;;;;5.60;4.67;;;;;;;9.69;100.00;102919.22;4984630;28;20954;-70
2022/04/15 08:40:37;;;;;;;6.67;4.40;;;;;;;9.78;100.00;102917.53;4982707;28;20917;-71
2022/04/15 08:43:05;;;;;;;5.50;4.77;;;;;;;9.52;100.00;102912.78;4985022;28;20185;-71
2022/04/15 08:45:30;;;;;;;8.83;4.70;;;;;;;9.65;100.00;102926.72;4982356;28;20449;-71
2022/04/15 08:48:00;;;;;;;5.87;4.30;;;;;;;9.68;100.00;102925.59;4983196;28;20502;-70
2022/04/15 08:50:27;;;;;;;4.70;3.47;;;;;;;9.65;100.00;102925.88;4995550;23;20291;-72
2022/04/15 08:52:54;;;;;;;5.00;4.00;;;;;;;9.42;100.00;102926.16;5018356;28;20502;-73
2022/04/15 08:55:22;;;;;;;4.70;3.43;;;;;;;9.36;100.00;102893.72;5020780;28;20884;-72
2022/04/15 08:57:49;;;;;;;5.67;4.10;;;;;;;9.48;100.00;102930.94;5020980;28;20439;-72
2022/04/15 09:00:15;;;;;;;4.83;3.50;;;;;;;9.67;100.00;102923.91;5001138;28;20460;-71
2022/04/15 09:02:41;;;;;;;5.50;3.70;;;;;;;9.40;100.00;102940.66;4997103;28;20455;-72
2022/04/15 09:05:07;;;;;;;4.77;3.27;;;;;;;9.44;100.00;102960.84;4994028;28;20448;-72
2022/04/15 09:07:35;;;;;;;5.27;3.63;;;;;;;9.23;100.00;102940.38;4981786;28;20182;-72
2022/04/15 09:10:02;;;;;;;6.67;3.70;;;;;;;9.37;100.00;102963.22;4980962;28;21048;-72
2022/04/15 09:12:29;;;;;;;5.47;3.67;;;;;;;9.34;100.00;102965.31;4996952;28;20480;-72
2022/04/15 09:15:11;;;;;;;6.80;4.37;;;;;;;9.33;100.00;102948.41;5000749;28;20543;-72
2022/04/15 09:17:38;;;;;;;6.60;3.57;;;;;;;9.41;100.00;102974.50;4995655;28;20501;-72
2022/04/15 09:20:06;;;;;;;4.60;3.70;;;;;;;9.22;100.00;102968.13;4999738;28;20465;-72
2022/04/15 09:22:32;;;;;;;6.17;3.63;;;;;;;9.36;100.00;102979.44;4996300;28;20511;-72
2022/04/15 09:24:59;;;;;;;6.77;4.23;;;;;;;9.30;100.00;102974.63;5001502;28;20534;-72
2022/04/15 09:27:24;;;;;;;6.33;4.27;;;;;;;8.76;100.00;102897.28;4995250;28;20185;-73
2022/04/15 09:29:54;;;;;;;5.13;3.50;;;;;;;9.34;100.00;102976.88;4995281;28;20456;-72
2022/04/15 09:32:19;;;;;;;4.70;3.03;;;;;;;9.11;100.00;102935.25;4996394;28;20730;-72
2022/04/15 09:35:15;;;;;;;6.13;3.70;;;;;;;9.26;100.00;102958.84;4991511;28;20448;-72
2022/04/15 09:37:43;;;;;;;6.53;4.23;;;;;;;9.28;100.00;102951.50;4998807;28;20342;-72
2022/04/15 09:40:12;;;;;;;5.43;3.87;;;;;;;9.32;100.00;102968.16;4996428;28;20486;-72
2022/04/15 09:42:47;;;;;;;6.33;4.10;;;;;;;9.33;100.00;102972.50;4997531;28;20439;-72
2022/04/15 09:45:16;;;;;;;5.73;4.33;;;;;;;9.24;100.00;102978.72;4999330;28;20933;-71
2022/04/15 09:47:42;;;;;;;7.20;4.40;;;;;;;9.22;100.00;102967.28;4991956;28;20440;-71
2022/04/15 09:50:30;;;;;;;5.10;3.33;;;;;;;9.22;100.00;102970.78;4997155;28;20475;-74
2022/04/15 09:53:16;;;;;;;6.67;3.80;;;;;;;9.42;100.00;102990.44;5001325;28;20834;-72
2022/04/15 09:55:43;;;;;;;6.10;3.90;;;;;;;9.53;100.00;102983.28;4998528;28;20476;-71
2022/04/15 09:58:14;;;;;;;6.13;3.90;;;;;;;9.43;100.00;102986.78;4994785;28;20475;-72
2022/04/15 10:00:42;;;;;;;9.70;4.93;;;;;;;8.99;100.00;102907.78;4994837;28;20553;-72
2022/04/15 10:03:09;;;;;;;8.87;4.33;;;;;;;9.48;100.00;102983.66;5000148;28;21037;-72
2022/04/15 10:05:36;;;;;;;5.03;3.70;;;;;;;9.48;100.00;102981.84;4990402;28;20743;-71
2022/04/15 10:08:03;;;;;;;6.53;3.87;;;;;;;9.31;100.00;102957.56;4982082;28;20455;-71
2022/04/15 10:10:30;;;;;;;5.43;3.70;;;;;;;9.00;100.00;102909.47;4999582;28;20467;-72
2022/04/15 10:12:59;;;;;;;4.90;4.10;;;;;;;9.17;100.00;102927.53;4999099;28;22262;-72
2022/04/15 10:15:25;;;;;;;5.10;3.67;;;;;;;9.18;100.00;102926.56;4999243;28;20930;-72
2022/04/15 10:17:51;;;;;;;4.50;3.53;;;;;;;9.59;100.00;102993.44;4992688;28;20454;-72
2022/04/15 10:20:16;;;;;;;7.13;4.20;;;;;;;9.56;100.00;102988.34;4992250;28;20463;-72
2022/04/15 10:22:43;;;;;;;5.83;3.90;;;;;;;9.45;100.00;102992.84;4992742;28;20216;-72
2022/04/15 10:25:09;;;;;;;9.97;4.40;;;;;;;9.52;100.00;102987.78;4992795;28;20266;-72
2022/04/15 10:27:34;;;;;;;5.10;3.47;;;;;;;9.63;100.00;102986.78;4991218;28;20927;-73
2022/04/15 10:30:21;;;;;;;7.80;3.80;;;;;;;9.57;100.00;102992.72;4990776;28;20221;-72
2022/04/15 10:32:48;;;;;;;5.00;4.13;;;;;;;9.67;100.00;102989.06;4998812;28;20216;-72
2022/04/15 10:35:22;;;;;;;5.73;3.60;;;;;;;9.73;100.00;102982.28;4995523;28;20992;-72
2022/04/15 10:38:11;;;;;;;7.40;3.70;;;;;;;9.78;100.00;102987.22;4997687;28;20440;-72
2022/04/15 10:40:42;;;;;;;10.00;3.80;;;;;;;9.45;100.00;102957.16;4988463;28;20806;-72
2022/04/15 10:43:29;;;;;;;5.80;3.70;;;;;;;9.55;100.00;102978.63;5000039;28;20932;-72
2022/04/15 10:46:14;;;;;;;9.60;3.80;;;;;;;9.42;100.00;102968.16;4999792;28;20453;-72
2022/04/15 10:48:40;;;;;;;4.37;3.63;;;;;;;9.34;100.00;102979.56;4996348;28;21133;-73
2022/04/15 10:51:23;;;;;;;6.17;3.80;;;;;;;9.44;100.00;102982.28;5007128;28;20463;-71
2022/04/15 10:53:48;;;;;;;5.83;4.00;;;;;;;9.58;100.00;102973.00;5002784;28;20525;-73
2022/04/15 10:56:14;;;;;;;7.53;4.60;;;;;;;9.70;100.00;102987.94;5002960;28;20447;-72
2022/04/15 11:02:00;;;;;;;6.53;3.70;;;;;;;9.25;100.00;102943.75;4989554;28;20696;-72
2022/04/15 11:04:26;;;;;;;5.60;4.10;;;;;;;9.60;100.00;102976.34;5002185;28;20440;-71
2022/04/15 11:06:52;;;;;;;6.80;3.57;;;;;;;9.56;100.00;102986.50;4996306;28;20452;-72
2022/04/15 11:09:22;;;;;;;7.00;3.13;;;;;;;9.39;100.00;102947.84;4995125;28;20196;-73
2022/04/15 11:11:52;;;;;;;5.10;3.23;;;;;;;9.63;100.00;102998.38;4998702;28;20545;-72
2022/04/15 11:14:17;;;;;;;5.13;3.23;;;;;;;9.65;100.00;102987.50;4998400;28;20470;-72
2022/04/15 11:16:48;;;;;;;3.73;3.03;;;;;;;9.47;100.00;102925.72;4993202;28;20451;-73
2022/04/15 11:19:32;;;;;;;4.03;2.93;;;;;;;9.95;100.00;102990.06;4994708;28;20647;-73
2022/04/15 11:22:00;;;;;;;5.17;3.33;;;;;;;9.85;100.00;102999.06;4978295;28;21168;-71
2022/04/15 11:24:27;;;;;;;5.23;3.20;;;;;;;9.36;100.00;102949.97;4993375;28;20468;-72
2022/04/15 11:27:03;;;;;;;3.53;2.97;;;;;;;9.58;100.00;102983.69;4994240;28;20448;-72